sensor_id;sensor_type;location;lat;lon;timestamp;pressure;altitude;pressure_sealevel;temperature;humidity
67397;BME280;57728;50.448;18.824;2024-03-02T00:00:23;97239.13;;;10.25;80.54
67397;BME280;57728;50.448;18.824;2024-03-02T00:02:26;97230.97;;;10.25;80.47
67397;BME280;57728;50.448;18.824;2024-03-02T00:04:28;97163.91;;;9.80;80.31
67397;BME280;57728;50.448;18.824;2024-03-02T00:06:29;97233.69;;;10.25;80.24
67397;BME280;57728;50.448;18.824;2024-03-02T00:08:30;97226.03;;;10.22;80.21
67397;BME280;57728;50.448;18.824;2024-03-02T00:10:37;97229.31;;;10.24;80.39
67397;BME280;57728;50.448;18.824;2024-03-02T00:12:42;97216.22;;;10.21;80.08
67397;BME280;57728;50.448;18.824;2024-03-02T00:14:43;97226.59;;;10.24;80.07
67397;BME280;57728;50.448;18.824;2024-03-02T00:16:45;97221.66;;;10.21;79.89
67397;BME280;57728;50.448;18.824;2024-03-02T00:18:46;97225.59;;;10.13;79.87
67397;BME280;57728;50.448;18.824;2024-03-02T00:20:47;97231.88;;;10.14;79.86
67397;BME280;57728;50.448;18.824;2024-03-02T00:22:50;97223.97;;;10.12;79.87
67397;BME280;57728;50.448;18.824;2024-03-02T00:24:51;97227.75;;;10.11;79.79
67397;BME280;57728;50.448;18.824;2024-03-02T00:26:52;97219.59;;;10.11;79.67
67397;BME280;57728;50.448;18.824;2024-03-02T00:28:55;97216.28;;;10.09;79.88
67397;BME280;57728;50.448;18.824;2024-03-02T00:31:11;97220.41;;;10.12;79.64
67397;BME280;57728;50.448;18.824;2024-03-02T00:33:13;97220.41;;;10.12;79.54
67397;BME280;57728;50.448;18.824;2024-03-02T00:35:15;97216.06;;;10.11;79.45
67397;BME280;57728;50.448;18.824;2024-03-02T00:37:16;97216.28;;;10.09;79.42
67397;BME280;57728;50.448;18.824;2024-03-02T00:39:18;97222.06;;;10.13;79.29
67397;BME280;57728;50.448;18.824;2024-03-02T00:41:30;97200.41;;;10.01;79.02
67397;BME280;57728;50.448;18.824;2024-03-02T00:43:57;97220.50;;;10.17;79.05
67397;BME280;57728;50.448;18.824;2024-03-02T00:46:11;97232.19;;;10.18;78.87
67397;BME280;57728;50.448;18.824;2024-03-02T00:48:15;97191.09;;;9.97;78.73
67397;BME280;57728;50.448;18.824;2024-03-02T00:50:17;97223.22;;;10.17;78.67
67397;BME280;57728;50.448;18.824;2024-03-02T00:52:19;97216.97;;;10.17;78.69
67397;BME280;57728;50.448;18.824;2024-03-02T00:54:25;97210.13;;;10.14;78.69
67397;BME280;57728;50.448;18.824;2024-03-02T00:56:30;97200.88;;;9.98;78.83
67397;BME280;57728;50.448;18.824;2024-03-02T00:58:32;97217.63;;;10.07;78.98
67397;BME280;57728;50.448;18.824;2024-03-02T01:00:35;97212.91;;;10.02;78.82
67397;BME280;57728;50.448;18.824;2024-03-02T01:02:37;97210.69;;;9.99;78.97
67397;BME280;57728;50.448;18.824;2024-03-02T01:04:38;97205.41;;;9.92;79.04
67397;BME280;57728;50.448;18.824;2024-03-02T01:06:41;97209.47;;;9.90;79.03
67397;BME280;57728;50.448;18.824;2024-03-02T01:08:43;97206.75;;;9.90;79.04
67397;BME280;57728;50.448;18.824;2024-03-02T01:10:44;97218.94;;;9.87;79.08
67397;BME280;57728;50.448;18.824;2024-03-02T01:12:46;97209.13;;;9.86;79.15
67397;BME280;57728;50.448;18.824;2024-03-02T01:14:47;97204.69;;;9.80;78.91
67397;BME280;57728;50.448;18.824;2024-03-02T01:16:48;97205.50;;;9.80;78.94
67397;BME280;57728;50.448;18.824;2024-03-02T01:18:50;97208.97;;;9.76;79.06
67397;BME280;57728;50.448;18.824;2024-03-02T01:20:52;97212.41;;;9.71;79.07
67397;BME280;57728;50.448;18.824;2024-03-02T01:22:53;97216.91;;;9.66;79.21
67397;BME280;57728;50.448;18.824;2024-03-02T01:24:55;97216.00;;;9.60;79.31
67397;BME280;57728;50.448;18.824;2024-03-02T01:26:56;97209.91;;;9.53;79.50
67397;BME280;57728;50.448;18.824;2024-03-02T01:28:57;97206.25;;;9.47;79.74
67397;BME280;57728;50.448;18.824;2024-03-02T01:30:59;97202.16;;;9.44;79.91
67397;BME280;57728;50.448;18.824;2024-03-02T01:33:00;97195.06;;;9.43;80.13
67397;BME280;57728;50.448;18.824;2024-03-02T01:35:03;97191.53;;;9.43;80.03
67397;BME280;57728;50.448;18.824;2024-03-02T01:37:05;97187.19;;;9.42;79.97
67397;BME280;57728;50.448;18.824;2024-03-02T01:39:09;97193.09;;;9.39;79.83
67397;BME280;57728;50.448;18.824;2024-03-02T01:41:10;97188.72;;;9.38;80.05
67397;BME280;57728;50.448;18.824;2024-03-02T01:43:13;97183.19;;;9.33;80.09
67397;BME280;57728;50.448;18.824;2024-03-02T01:45:14;97179.91;;;9.31;79.99
67397;BME280;57728;50.448;18.824;2024-03-02T01:47:15;97181.53;;;9.32;80.25
67397;BME280;57728;50.448;18.824;2024-03-02T01:49:17;97180.72;;;9.31;80.24
67397;BME280;57728;50.448;18.824;2024-03-02T01:51:19;97187.47;;;9.28;80.14
67397;BME280;57728;50.448;18.824;2024-03-02T01:53:21;97175.44;;;9.24;80.14
67397;BME280;57728;50.448;18.824;2024-03-02T01:55:23;97170.50;;;9.21;80.17
67397;BME280;57728;50.448;18.824;2024-03-02T01:57:24;97176.03;;;9.26;80.35
67397;BME280;57728;50.448;18.824;2024-03-02T01:59:27;97166.72;;;9.22;80.35
67397;BME280;57728;50.448;18.824;2024-03-02T02:01:29;97170.59;;;9.26;80.34
67397;BME280;57728;50.448;18.824;2024-03-02T02:03:32;97176.84;;;9.27;80.29
67397;BME280;57728;50.448;18.824;2024-03-02T02:05:34;97175.53;;;9.29;80.28
67397;BME280;57728;50.448;18.824;2024-03-02T02:07:36;97170.00;;;9.24;80.08
67397;BME280;57728;50.448;18.824;2024-03-02T02:09:38;97173.38;;;9.32;80.11
67397;BME280;57728;50.448;18.824;2024-03-02T02:11:40;97169.28;;;9.29;79.87
67397;BME280;57728;50.448;18.824;2024-03-02T02:13:41;97171.28;;;9.34;79.90
67397;BME280;57728;50.448;18.824;2024-03-02T02:15:42;97170.22;;;9.35;79.82
67397;BME280;57728;50.448;18.824;2024-03-02T02:17:44;97172.91;;;9.35;79.48
67397;BME280;57728;50.448;18.824;2024-03-02T02:19:45;97160.78;;;9.25;79.42
67397;BME280;57728;50.448;18.824;2024-03-02T02:21:46;97170.44;;;9.33;79.38
67397;BME280;57728;50.448;18.824;2024-03-02T02:23:48;97165.72;;;9.28;79.45
67397;BME280;57728;50.448;18.824;2024-03-02T02:25:49;97160.91;;;9.31;79.31
67397;BME280;57728;50.448;18.824;2024-03-02T02:27:50;97162.53;;;9.32;79.28
67397;BME280;57728;50.448;18.824;2024-03-02T02:29:52;97154.06;;;9.28;79.41
67397;BME280;57728;50.448;18.824;2024-03-02T02:31:53;97158.66;;;9.27;79.20
67397;BME280;57728;50.448;18.824;2024-03-02T02:33:54;97156.88;;;9.33;79.18
67397;BME280;57728;50.448;18.824;2024-03-02T02:35:56;97160.97;;;9.36;79.16
67397;BME280;57728;50.448;18.824;2024-03-02T02:37:58;97148.38;;;9.29;79.03
67397;BME280;57728;50.448;18.824;2024-03-02T02:39:59;97163.22;;;9.39;78.97
67397;BME280;57728;50.448;18.824;2024-03-02T02:42:01;97160.25;;;9.40;78.90
67397;BME280;57728;50.448;18.824;2024-03-02T02:44:03;97163.28;;;9.44;78.85
67397;BME280;57728;50.448;18.824;2024-03-02T02:46:04;97166.59;;;9.46;78.63
67397;BME280;57728;50.448;18.824;2024-03-02T02:48:07;97157.28;;;9.42;78.69
67397;BME280;57728;50.448;18.824;2024-03-02T02:50:08;97169.38;;;9.51;78.38
67397;BME280;57728;50.448;18.824;2024-03-02T02:52:09;97169.13;;;9.53;78.33
67397;BME280;57728;50.448;18.824;2024-03-02T02:54:11;97163.25;;;9.56;78.31
67397;BME280;57728;50.448;18.824;2024-03-02T02:56:12;97160.03;;;9.59;78.41
67397;BME280;57728;50.448;18.824;2024-03-02T02:58:13;97164.16;;;9.61;77.98
67397;BME280;57728;50.448;18.824;2024-03-02T03:00:17;97164.47;;;9.65;78.10
67397;BME280;57728;50.448;18.824;2024-03-02T03:02:20;97157.13;;;9.66;78.11
67397;BME280;57728;50.448;18.824;2024-03-02T03:04:21;97162.41;;;9.72;77.92
67397;BME280;57728;50.448;18.824;2024-03-02T03:06:23;97158.38;;;9.75;77.61
67397;BME280;57728;50.448;18.824;2024-03-02T03:08:24;97160.59;;;9.78;77.61
67397;BME280;57728;50.448;18.824;2024-03-02T03:10:25;97156.81;;;9.79;77.32
67397;BME280;57728;50.448;18.824;2024-03-02T03:12:29;97159.03;;;9.82;77.27
67397;BME280;57728;50.448;18.824;2024-03-02T03:14:31;97156.91;;;9.84;77.13
67397;BME280;57728;50.448;18.824;2024-03-02T03:16:32;97158.53;;;9.85;77.06
67397;BME280;57728;50.448;18.824;2024-03-02T03:18:35;97159.13;;;9.87;76.98
67397;BME280;57728;50.448;18.824;2024-03-02T03:20:36;97155.91;;;9.90;76.82
67397;BME280;57728;50.448;18.824;2024-03-02T03:22:38;97158.06;;;9.88;76.74
67397;BME280;57728;50.448;18.824;2024-03-02T03:24:40;97157.56;;;9.91;76.83
67397;BME280;57728;50.448;18.824;2024-03-02T03:26:41;97157.06;;;9.94;76.66
67397;BME280;57728;50.448;18.824;2024-03-02T03:28:42;97154.34;;;9.94;76.44
67397;BME280;57728;50.448;18.824;2024-03-02T03:30:45;97157.38;;;9.98;76.22
67397;BME280;57728;50.448;18.824;2024-03-02T03:32:46;97162.00;;;9.97;76.21
67397;BME280;57728;50.448;18.824;2024-03-02T03:34:48;97164.47;;;9.99;76.09
67397;BME280;57728;50.448;18.824;2024-03-02T03:36:50;97160.94;;;9.98;75.87
67397;BME280;57728;50.448;18.824;2024-03-02T03:38:51;97152.69;;;9.93;75.88
67397;BME280;57728;50.448;18.824;2024-03-02T03:40:52;97167.78;;;10.01;75.84
67397;BME280;57728;50.448;18.824;2024-03-02T03:42:54;97159.03;;;9.99;75.71
67397;BME280;57728;50.448;18.824;2024-03-02T03:44:57;97162.59;;;10.00;75.72
67397;BME280;57728;50.448;18.824;2024-03-02T03:46:58;97156.66;;;10.03;75.89
67397;BME280;57728;50.448;18.824;2024-03-02T03:49:00;97159.69;;;10.06;75.50
67397;BME280;57728;50.448;18.824;2024-03-02T03:51:01;97157.47;;;10.03;75.46
67397;BME280;57728;50.448;18.824;2024-03-02T03:53:02;97167.59;;;10.08;75.46
67397;BME280;57728;50.448;18.824;2024-03-02T03:55:04;97158.88;;;10.06;75.58
67397;BME280;57728;50.448;18.824;2024-03-02T03:57:06;97160.00;;;10.10;75.37
67397;BME280;57728;50.448;18.824;2024-03-02T03:59:07;97169.81;;;10.11;75.16
67397;BME280;57728;50.448;18.824;2024-03-02T04:01:09;97163.78;;;10.09;75.37
67397;BME280;57728;50.448;18.824;2024-03-02T04:03:10;97176.34;;;10.10;74.98
67397;BME280;57728;50.448;18.824;2024-03-02T04:05:11;97158.88;;;10.06;75.03
67397;BME280;57728;50.448;18.824;2024-03-02T04:07:15;97162.75;;;10.10;75.17
67397;BME280;57728;50.448;18.824;2024-03-02T04:09:16;97174.75;;;10.14;74.96
67397;BME280;57728;50.448;18.824;2024-03-02T04:11:17;97163.53;;;10.10;74.77
67397;BME280;57728;50.448;18.824;2024-03-02T04:13:20;97165.19;;;10.11;74.63
67397;BME280;57728;50.448;18.824;2024-03-02T04:15:21;97163.28;;;10.12;74.53
67397;BME280;57728;50.448;18.824;2024-03-02T04:17:23;97135.78;;;10.08;74.77
67397;BME280;57728;50.448;18.824;2024-03-02T04:19:25;97156.78;;;10.13;74.56
67397;BME280;57728;50.448;18.824;2024-03-02T04:21:26;97155.72;;;10.14;74.33
67397;BME280;57728;50.448;18.824;2024-03-02T04:23:27;97152.16;;;10.13;74.42
67397;BME280;57728;50.448;18.824;2024-03-02T04:25:29;97158.44;;;10.14;74.38
67397;BME280;57728;50.448;18.824;2024-03-02T04:27:31;97160.56;;;10.12;74.23
67397;BME280;57728;50.448;18.824;2024-03-02T04:29:34;97157.28;;;10.10;74.20
67397;BME280;57728;50.448;18.824;2024-03-02T04:31:35;97163.00;;;10.08;74.12
67397;BME280;57728;50.448;18.824;2024-03-02T04:33:36;97156.16;;;10.06;74.38
67397;BME280;57728;50.448;18.824;2024-03-02T04:35:38;97163.16;;;10.02;74.23
67397;BME280;57728;50.448;18.824;2024-03-02T04:37:40;97162.34;;;10.01;74.20
67397;BME280;57728;50.448;18.824;2024-03-02T04:39:44;97167.78;;;10.01;74.04
67397;BME280;57728;50.448;18.824;2024-03-02T04:41:45;97169.91;;;9.99;74.15
67397;BME280;57728;50.448;18.824;2024-03-02T04:43:47;97168.50;;;9.96;74.15
67397;BME280;57728;50.448;18.824;2024-03-02T04:45:48;97168.75;;;9.95;74.45
67397;BME280;57728;50.448;18.824;2024-03-02T04:47:49;97178.81;;;9.94;74.39
67397;BME280;57728;50.448;18.824;2024-03-02T04:49:51;97173.03;;;9.91;74.28
67397;BME280;57728;50.448;18.824;2024-03-02T04:51:52;97176.00;;;9.89;74.25
67397;BME280;57728;50.448;18.824;2024-03-02T04:53:53;97172.47;;;9.89;74.40
67397;BME280;57728;50.448;18.824;2024-03-02T04:55:55;97164.47;;;9.82;74.42
67397;BME280;57728;50.448;18.824;2024-03-02T04:58:19;97177.31;;;9.87;74.51
67397;BME280;57728;50.448;18.824;2024-03-02T05:00:20;97172.13;;;9.85;74.59
67397;BME280;57728;50.448;18.824;2024-03-02T05:02:22;97177.56;;;9.85;74.69
67397;BME280;57728;50.448;18.824;2024-03-02T05:04:23;97171.31;;;9.85;74.73
67397;BME280;57728;50.448;18.824;2024-03-02T05:06:24;97098.97;;;9.33;74.78
67397;BME280;57728;50.448;18.824;2024-03-02T05:08:26;97172.63;;;9.82;74.65
67397;BME280;57728;50.448;18.824;2024-03-02T05:10:27;97174.78;;;9.80;74.80
67397;BME280;57728;50.448;18.824;2024-03-02T05:12:28;97169.50;;;9.73;74.82
67397;BME280;57728;50.448;18.824;2024-03-02T05:14:45;97175.75;;;9.74;74.65
67397;BME280;57728;50.448;18.824;2024-03-02T05:16:46;97179.56;;;9.73;74.87
67397;BME280;57728;50.448;18.824;2024-03-02T05:18:48;97179.78;;;9.71;74.93
67397;BME280;57728;50.448;18.824;2024-03-02T05:20:49;97181.59;;;9.66;74.81
67397;BME280;57728;50.448;18.824;2024-03-02T05:22:53;97115.78;;;9.29;74.85
67397;BME280;57728;50.448;18.824;2024-03-02T05:24:55;97190.34;;;9.68;74.82
67397;BME280;57728;50.448;18.824;2024-03-02T05:26:57;97189.75;;;9.66;74.89
67397;BME280;57728;50.448;18.824;2024-03-02T05:28:58;97199.31;;;9.68;74.95
67397;BME280;57728;50.448;18.824;2024-03-02T05:30:59;97195.78;;;9.68;75.14
67397;BME280;57728;50.448;18.824;2024-03-02T05:33:01;97208.28;;;9.69;75.10
67397;BME280;57728;50.448;18.824;2024-03-02T05:35:02;97206.63;;;9.68;75.17
67397;BME280;57728;50.448;18.824;2024-03-02T05:37:05;97212.06;;;9.68;75.15
67397;BME280;57728;50.448;18.824;2024-03-02T05:39:07;97204.72;;;9.68;75.18
67397;BME280;57728;50.448;18.824;2024-03-02T05:41:10;97210.16;;;9.68;75.09
67397;BME280;57728;50.448;18.824;2024-03-02T05:43:12;97217.00;;;9.71;74.99
67397;BME280;57728;50.448;18.824;2024-03-02T05:45:14;97216.19;;;9.70;75.01
67397;BME280;57728;50.448;18.824;2024-03-02T05:47:17;97212.41;;;9.71;75.05
67397;BME280;57728;50.448;18.824;2024-03-02T05:49:18;97217.59;;;9.73;75.04
67397;BME280;57728;50.448;18.824;2024-03-02T05:51:20;97216.53;;;9.74;75.14
67397;BME280;57728;50.448;18.824;2024-03-02T05:53:21;97214.41;;;9.76;74.98
67397;BME280;57728;50.448;18.824;2024-03-02T05:55:22;97217.69;;;9.78;75.06
67397;BME280;57728;50.448;18.824;2024-03-02T05:57:24;97218.53;;;9.78;74.85
67397;BME280;57728;50.448;18.824;2024-03-02T05:59:41;97200.22;;;9.74;74.66
67397;BME280;57728;50.448;18.824;2024-03-02T06:01:43;97224.28;;;9.82;74.77
67397;BME280;57728;50.448;18.824;2024-03-02T06:03:46;97227.59;;;9.84;74.65
67397;BME280;57728;50.448;18.824;2024-03-02T06:05:47;97225.69;;;9.85;74.57
67397;BME280;57728;50.448;18.824;2024-03-02T06:07:50;97231.13;;;9.85;74.38
67397;BME280;57728;50.448;18.824;2024-03-02T06:09:52;97227.34;;;9.86;74.54
67397;BME280;57728;50.448;18.824;2024-03-02T06:11:53;97228.75;;;9.88;74.42
67397;BME280;57728;50.448;18.824;2024-03-02T06:13:54;97229.06;;;9.92;74.34
67397;BME280;57728;50.448;18.824;2024-03-02T06:15:56;97220.91;;;9.92;74.37
67397;BME280;57728;50.448;18.824;2024-03-02T06:17:57;97218.94;;;9.87;74.22
67397;BME280;57728;50.448;18.824;2024-03-02T06:19:58;97223.97;;;9.95;74.23
67397;BME280;57728;50.448;18.824;2024-03-02T06:22:00;97203.13;;;9.84;74.22
67397;BME280;57728;50.448;18.824;2024-03-02T06:24:01;97227.00;;;9.99;74.20
67397;BME280;57728;50.448;18.824;2024-03-02T06:26:02;97225.34;;;9.98;74.26
67397;BME280;57728;50.448;18.824;2024-03-02T06:28:04;97220.50;;;10.00;74.05
67397;BME280;57728;50.448;18.824;2024-03-02T06:30:06;97228.41;;;10.02;74.03
67397;BME280;57728;50.448;18.824;2024-03-02T06:32:07;97227.34;;;10.03;74.19
67397;BME280;57728;50.448;18.824;2024-03-02T06:34:09;97158.88;;;9.55;74.00
67397;BME280;57728;50.448;18.824;2024-03-02T06:36:10;97231.22;;;10.07;74.09
67397;BME280;57728;50.448;18.824;2024-03-02T06:38:12;97227.75;;;10.11;73.97
67397;BME280;57728;50.448;18.824;2024-03-02T06:40:14;97228.06;;;10.15;74.01
67397;BME280;57728;50.448;18.824;2024-03-02T06:42:15;97231.38;;;10.17;73.74
67397;BME280;57728;50.448;18.824;2024-03-02T06:44:16;97229.22;;;10.19;73.59
67397;BME280;57728;50.448;18.824;2024-03-02T06:46:18;97231.38;;;10.17;73.61
67397;BME280;57728;50.448;18.824;2024-03-02T06:48:19;97230.88;;;10.20;73.36
67397;BME280;57728;50.448;18.824;2024-03-02T06:50:20;97234.19;;;10.22;73.25
67397;BME280;57728;50.448;18.824;2024-03-02T06:52:22;97227.09;;;10.21;73.30
67397;BME280;57728;50.448;18.824;2024-03-02T06:54:23;97231.22;;;10.24;72.98
67397;BME280;57728;50.448;18.824;2024-03-02T06:56:24;97228.75;;;10.22;73.24
67397;BME280;57728;50.448;18.824;2024-03-02T06:58:26;97228.81;;;10.27;73.20
67397;BME280;57728;50.448;18.824;2024-03-02T07:00:27;97243.25;;;10.28;72.85
67397;BME280;57728;50.448;18.824;2024-03-02T07:02:29;97232.94;;;10.30;73.15
67397;BME280;57728;50.448;18.824;2024-03-02T07:04:31;97231.16;;;10.36;72.71
67397;BME280;57728;50.448;18.824;2024-03-02T07:06:32;97239.06;;;10.37;72.81
67397;BME280;57728;50.448;18.824;2024-03-02T07:08:33;97238.81;;;10.39;72.75
67397;BME280;57728;50.448;18.824;2024-03-02T07:10:35;97243.75;;;10.42;72.68
67397;BME280;57728;50.448;18.824;2024-03-02T07:12:36;97248.72;;;10.45;72.62
67397;BME280;57728;50.448;18.824;2024-03-02T07:14:37;97243.84;;;10.47;72.65
67397;BME280;57728;50.448;18.824;2024-03-02T07:16:58;97239.78;;;10.49;72.54
67397;BME280;57728;50.448;18.824;2024-03-02T07:18:59;97240.59;;;10.50;72.49
67397;BME280;57728;50.448;18.824;2024-03-02T07:21:01;97243.06;;;10.52;72.37
67397;BME280;57728;50.448;18.824;2024-03-02T07:23:03;97240.09;;;10.53;72.33
67397;BME280;57728;50.448;18.824;2024-03-02T07:25:05;97250.50;;;10.56;72.24
67397;BME280;57728;50.448;18.824;2024-03-02T07:27:09;97236.22;;;10.49;72.18
67397;BME280;57728;50.448;18.824;2024-03-02T07:29:11;97251.06;;;10.58;71.98
67397;BME280;57728;50.448;18.824;2024-03-02T07:31:12;97251.66;;;10.60;71.92
67397;BME280;57728;50.448;18.824;2024-03-02T07:33:14;97229.22;;;10.53;71.87
67397;BME280;57728;50.448;18.824;2024-03-02T07:35:18;97252.88;;;10.70;71.71
67397;BME280;57728;50.448;18.824;2024-03-02T07:37:19;97247.16;;;10.71;71.63
67397;BME280;57728;50.448;18.824;2024-03-02T07:39:21;97252.19;;;10.79;71.85
67397;BME280;57728;50.448;18.824;2024-03-02T07:41:23;97256.06;;;10.83;71.52
67397;BME280;57728;50.448;18.824;2024-03-02T07:43:24;97250.28;;;10.80;71.10
67397;BME280;57728;50.448;18.824;2024-03-02T07:45:25;97256.13;;;10.89;71.12
67397;BME280;57728;50.448;18.824;2024-03-02T07:47:27;97218.88;;;10.72;70.90
67397;BME280;57728;50.448;18.824;2024-03-02T07:49:28;97232.88;;;10.81;70.70
67397;BME280;57728;50.448;18.824;2024-03-02T07:51:29;97259.28;;;11.02;70.74
67397;BME280;57728;50.448;18.824;2024-03-02T07:53:31;97267.88;;;11.11;70.72
67397;BME280;57728;50.448;18.824;2024-03-02T07:55:35;97263.84;;;11.19;70.45
67397;BME280;57728;50.448;18.824;2024-03-02T07:57:36;97186.28;;;10.77;70.15
67397;BME280;57728;50.448;18.824;2024-03-02T07:59:38;97260.81;;;11.38;69.87
67397;BME280;57728;50.448;18.824;2024-03-02T08:01:40;97240.84;;;11.32;69.71
67397;BME280;57728;50.448;18.824;2024-03-02T08:03:41;97258.00;;;11.55;69.62
67397;BME280;57728;50.448;18.824;2024-03-02T08:05:44;97259.19;;;11.64;69.33
67397;BME280;57728;50.448;18.824;2024-03-02T08:07:46;97257.34;;;11.69;68.97
67397;BME280;57728;50.448;18.824;2024-03-02T08:09:48;97264.56;;;11.81;68.79
67397;BME280;57728;50.448;18.824;2024-03-02T08:11:50;97269.28;;;11.91;69.09
67397;BME280;57728;50.448;18.824;2024-03-02T08:13:51;97254.91;;;11.95;68.77
67397;BME280;57728;50.448;18.824;2024-03-02T08:15:53;97273.34;;;12.15;68.54
67397;BME280;57728;50.448;18.824;2024-03-02T08:17:55;97263.34;;;12.26;68.36
67397;BME280;57728;50.448;18.824;2024-03-02T08:19:57;97251.84;;;12.24;67.88
67397;BME280;57728;50.448;18.824;2024-03-02T08:21:58;97252.25;;;12.38;67.33
67397;BME280;57728;50.448;18.824;2024-03-02T08:24:02;97233.34;;;12.31;67.10
67397;BME280;57728;50.448;18.824;2024-03-02T08:26:03;97254.78;;;12.50;67.20
67397;BME280;57728;50.448;18.824;2024-03-02T08:28:05;97261.66;;;12.58;66.97
67397;BME280;57728;50.448;18.824;2024-03-02T08:30:08;97249.09;;;12.56;66.59
67397;BME280;57728;50.448;18.824;2024-03-02T08:32:11;97254.88;;;12.65;66.38
67397;BME280;57728;50.448;18.824;2024-03-02T08:34:12;97268.63;;;12.76;66.56
67397;BME280;57728;50.448;18.824;2024-03-02T08:36:17;97268.66;;;12.86;66.40
67397;BME280;57728;50.448;18.824;2024-03-02T08:38:18;97264.91;;;12.97;66.44
67397;BME280;57728;50.448;18.824;2024-03-02T08:40:19;97267.19;;;13.11;66.21
67397;BME280;57728;50.448;18.824;2024-03-02T08:42:22;97263.41;;;13.22;65.84
67397;BME280;57728;50.448;18.824;2024-03-02T08:44:23;97251.38;;;13.28;65.47
67397;BME280;57728;50.448;18.824;2024-03-02T08:46:25;97257.50;;;13.51;65.26
67397;BME280;57728;50.448;18.824;2024-03-02T08:48:28;97274.53;;;13.73;64.98
67397;BME280;57728;50.448;18.824;2024-03-02T08:50:29;97268.53;;;13.92;64.80
67397;BME280;57728;50.448;18.824;2024-03-02T08:52:30;97269.09;;;14.09;64.25
67397;BME280;57728;50.448;18.824;2024-03-02T08:54:32;97274.03;;;14.18;63.56
67397;BME280;57728;50.448;18.824;2024-03-02T08:56:35;97274.03;;;14.23;63.13
67397;BME280;57728;50.448;18.824;2024-03-02T08:58:37;97258.16;;;14.09;63.12
67397;BME280;57728;50.448;18.824;2024-03-02T09:00:39;97286.66;;;14.24;62.94
67397;BME280;57728;50.448;18.824;2024-03-02T09:02:41;97285.00;;;14.23;62.74
67397;BME280;57728;50.448;18.824;2024-03-02T09:04:42;97277.34;;;14.20;62.29
67397;BME280;57728;50.448;18.824;2024-03-02T09:06:44;97278.44;;;14.19;62.30
67397;BME280;57728;50.448;18.824;2024-03-02T09:08:45;97271.31;;;14.13;62.62
67397;BME280;57728;50.448;18.824;2024-03-02T09:10:46;97283.91;;;14.19;62.44
67397;BME280;57728;50.448;18.824;2024-03-02T09:12:48;97252.97;;;14.03;62.76
67397;BME280;57728;50.448;18.824;2024-03-02T09:14:49;97278.69;;;14.17;62.38
67397;BME280;57728;50.448;18.824;2024-03-02T09:16:51;97287.16;;;14.21;62.59
67397;BME280;57728;50.448;18.824;2024-03-02T09:18:53;97273.50;;;14.16;62.44
67397;BME280;57728;50.448;18.824;2024-03-02T09:20:54;97278.72;;;14.22;62.31
67397;BME280;57728;50.448;18.824;2024-03-02T09:22:55;97278.44;;;14.24;62.60
67397;BME280;57728;50.448;18.824;2024-03-02T09:24:57;97285.00;;;14.23;62.14
67397;BME280;57728;50.448;18.824;2024-03-02T09:26:58;97281.69;;;14.10;62.01
67397;BME280;57728;50.448;18.824;2024-03-02T09:29:02;97286.63;;;14.14;61.95
67397;BME280;57728;50.448;18.824;2024-03-02T09:31:04;97282.25;;;14.07;62.22
67397;BME280;57728;50.448;18.824;2024-03-02T09:33:05;97283.88;;;14.14;62.18
67397;BME280;57728;50.448;18.824;2024-03-02T09:35:06;97272.41;;;14.12;62.15
67397;BME280;57728;50.448;18.824;2024-03-02T09:37:08;97286.09;;;14.22;62.50
67397;BME280;57728;50.448;18.824;2024-03-02T09:39:10;97269.13;;;14.20;62.42
67397;BME280;57728;50.448;18.824;2024-03-02T09:41:12;97288.31;;;14.35;62.65
67397;BME280;57728;50.448;18.824;2024-03-02T09:43:16;97285.81;;;14.39;62.62
67397;BME280;57728;50.448;18.824;2024-03-02T09:45:22;97285.00;;;14.33;62.58
67397;BME280;57728;50.448;18.824;2024-03-02T09:47:24;97292.13;;;14.34;62.72
67397;BME280;57728;50.448;18.824;2024-03-02T09:49:26;97292.13;;;14.34;62.34
67397;BME280;57728;50.448;18.824;2024-03-02T09:51:28;97284.72;;;14.19;62.13
67397;BME280;57728;50.448;18.824;2024-03-02T09:53:31;97302.22;;;14.13;62.28
67397;BME280;57728;50.448;18.824;2024-03-02T09:55:35;97294.28;;;14.06;62.79
67397;BME280;57728;50.448;18.824;2024-03-02T09:57:36;97294.28;;;14.01;62.91
67397;BME280;57728;50.448;18.824;2024-03-02T09:59:37;97297.03;;;14.01;62.77
67397;BME280;57728;50.448;18.824;2024-03-02T10:01:39;97287.72;;;13.97;63.13
67397;BME280;57728;50.448;18.824;2024-03-02T10:03:40;97295.09;;;14.02;63.24
67397;BME280;57728;50.448;18.824;2024-03-02T10:05:41;97291.00;;;14.04;62.96
67397;BME280;57728;50.448;18.824;2024-03-02T10:07:59;97295.41;;;14.05;62.79
67397;BME280;57728;50.448;18.824;2024-03-02T10:10:14;97287.44;;;14.04;62.75
67397;BME280;57728;50.448;18.824;2024-03-02T10:12:17;97272.09;;;13.92;62.88
67397;BME280;57728;50.448;18.824;2024-03-02T10:14:20;97285.25;;;14.06;62.80
67397;BME280;57728;50.448;18.824;2024-03-02T10:16:21;97287.72;;;14.07;62.53
67397;BME280;57728;50.448;18.824;2024-03-02T10:18:27;97280.03;;;13.99;63.02
67397;BME280;57728;50.448;18.824;2024-03-02T10:20:30;97289.94;;;14.16;62.89
67397;BME280;57728;50.448;18.824;2024-03-02T10:22:34;97287.19;;;14.26;63.10
67397;BME280;57728;50.448;18.824;2024-03-02T10:24:37;97289.38;;;14.29;63.14
67397;BME280;57728;50.448;18.824;2024-03-02T10:26:40;97282.00;;;14.30;62.72
67397;BME280;57728;50.448;18.824;2024-03-02T10:28:48;97291.59;;;14.32;63.06
67397;BME280;57728;50.448;18.824;2024-03-02T10:30:49;97299.81;;;14.32;63.01
67397;BME280;57728;50.448;18.824;2024-03-02T10:32:56;97298.69;;;14.33;63.08
67397;BME280;57728;50.448;18.824;2024-03-02T10:34:58;97258.72;;;14.12;62.96
67397;BME280;57728;50.448;18.824;2024-03-02T10:37:00;97300.88;;;14.36;62.94
67397;BME280;57728;50.448;18.824;2024-03-02T10:39:06;97286.09;;;14.27;62.80
67397;BME280;57728;50.448;18.824;2024-03-02T10:41:08;97295.41;;;14.31;63.07
67397;BME280;57728;50.448;18.824;2024-03-02T10:43:11;97295.13;;;14.33;63.11